createdAt,value
2022-10-01T00:00:02.096Z,4.30
2022-10-01T00:01:02.076Z,7.60
2022-10-01T00:02:02.174Z,3.30
2022-10-01T00:03:02.118Z,4.30
2022-10-01T00:04:02.044Z,4.80
2022-10-01T00:05:02.023Z,6.10
2022-10-01T00:06:02.013Z,5.00
2022-10-01T00:07:02.005Z,3.70
2022-10-01T00:08:01.985Z,5.40
2022-10-01T00:09:01.982Z,4.80
2022-10-01T00:10:01.962Z,5.60
2022-10-01T00:11:01.950Z,6.90
2022-10-01T00:12:01.953Z,3.80
2022-10-01T00:13:01.920Z,4.40
2022-10-01T00:14:01.912Z,2.90
2022-10-01T00:15:05.613Z,7.80
2022-10-01T00:16:01.881Z,6.80
2022-10-01T00:17:01.914Z,5.50
2022-10-01T00:18:01.869Z,3.50
2022-10-01T00:19:01.842Z,5.60
2022-10-01T00:20:01.830Z,4.80
2022-10-01T00:21:01.812Z,5.10
2022-10-01T00:22:01.819Z,4.00
2022-10-01T00:23:01.799Z,4.60
2022-10-01T00:24:01.777Z,4.90
2022-10-01T00:25:01.770Z,5.60
2022-10-01T00:26:01.751Z,4.40
2022-10-01T00:27:01.760Z,4.00
2022-10-01T00:28:01.746Z,5.40
2022-10-01T00:29:01.714Z,4.60
2022-10-01T00:30:01.704Z,3.90
2022-10-01T00:31:01.716Z,4.70
2022-10-01T00:32:01.752Z,4.60
2022-10-01T00:33:01.670Z,5.00
2022-10-01T00:34:01.658Z,3.30
2022-10-01T00:35:01.650Z,6.40
2022-10-01T00:36:01.618Z,3.40
2022-10-01T00:37:01.630Z,4.60
2022-10-01T00:38:01.599Z,4.60
2022-10-01T00:39:01.618Z,4.10
2022-10-01T00:40:01.588Z,3.60
2022-10-01T00:41:01.571Z,3.90
2022-10-01T00:42:01.557Z,3.70
2022-10-01T00:43:01.538Z,3.70
2022-10-01T00:44:01.537Z,3.40
2022-10-01T00:45:01.520Z,7.00
2022-10-01T00:46:01.572Z,4.10
2022-10-01T00:47:01.500Z,7.30
2022-10-01T00:48:01.477Z,4.90
2022-10-01T00:49:01.467Z,4.60
2022-10-01T00:50:01.451Z,3.60
2022-10-01T00:51:01.435Z,4.00
2022-10-01T00:52:01.434Z,4.90
2022-10-01T00:53:01.415Z,7.00
2022-10-01T00:54:01.396Z,6.50
2022-10-01T00:55:01.396Z,4.90
2022-10-01T00:56:01.366Z,4.10
2022-10-01T00:57:01.384Z,3.60
2022-10-01T00:58:01.347Z,6.60
2022-10-01T00:59:01.333Z,6.60
2022-10-01T01:00:01.315Z,4.90
2022-10-01T01:01:01.352Z,4.20
2022-10-01T01:02:01.347Z,3.80
2022-10-01T01:03:01.295Z,6.70
2022-10-01T01:04:01.263Z,5.10
2022-10-01T01:05:01.252Z,4.90
2022-10-01T01:06:01.243Z,5.00
2022-10-01T01:07:01.254Z,4.70
2022-10-01T01:08:01.213Z,4.60
2022-10-01T01:09:01.215Z,4.70
2022-10-01T01:10:01.199Z,6.50
2022-10-01T01:11:01.203Z,6.60
2022-10-01T01:12:01.164Z,4.90
2022-10-01T01:13:01.153Z,5.60
2022-10-01T01:14:01.154Z,6.20
2022-10-01T01:15:01.164Z,6.30
2022-10-01T01:16:01.197Z,8.00
2022-10-01T01:17:01.175Z,5.60
2022-10-01T01:18:01.134Z,6.00
2022-10-01T01:19:01.074Z,6.60
2022-10-01T01:20:01.069Z,6.90
2022-10-01T01:21:01.041Z,7.90
2022-10-01T01:22:01.050Z,6.30
2022-10-01T01:23:01.012Z,7.30
2022-10-01T01:24:01.010Z,6.20
2022-10-01T01:25:01.001Z,5.70
2022-10-01T01:26:00.995Z,6.60
2022-10-01T01:27:00.971Z,4.20
2022-10-01T01:28:01.017Z,6.90
2022-10-01T01:29:00.943Z,6.00
2022-10-01T01:30:00.931Z,5.00
2022-10-01T01:31:00.953Z,5.20
2022-10-01T01:32:00.928Z,5.70
2022-10-01T01:33:00.892Z,6.60
2022-10-01T01:34:00.889Z,5.80
2022-10-01T01:35:00.870Z,6.30
2022-10-01T01:36:00.853Z,5.60
2022-10-01T01:37:00.839Z,4.50
2022-10-01T01:38:00.831Z,5.60
2022-10-01T01:39:00.809Z,4.80
2022-10-01T01:40:00.801Z,5.30
2022-10-01T01:41:00.780Z,3.70
2022-10-01T01:42:00.798Z,7.20
2022-10-01T01:43:00.758Z,5.90
2022-10-01T01:44:00.761Z,6.40
2022-10-01T01:45:00.742Z,4.80
2022-10-01T01:46:00.761Z,4.60
2022-10-01T01:47:00.719Z,6.40
2022-10-01T01:48:00.705Z,3.60
2022-10-01T01:49:00.687Z,4.60
2022-10-01T01:50:00.666Z,8.30
2022-10-01T01:51:00.656Z,6.60
2022-10-01T01:52:00.667Z,4.40
2022-10-01T01:53:00.635Z,7.50
2022-10-01T01:54:00.620Z,7.10
2022-10-01T01:55:00.605Z,4.80
2022-10-01T01:56:00.599Z,5.50
2022-10-01T01:57:00.587Z,5.50
2022-10-01T01:58:00.575Z,5.60
2022-10-01T01:59:00.546Z,6.10
2022-10-01T02:00:00.539Z,6.50
2022-10-01T02:01:00.529Z,5.70
2022-10-01T02:02:00.688Z,6.50
2022-10-01T02:03:00.569Z,5.60
2022-10-01T02:04:00.494Z,7.30
2022-10-01T02:05:00.479Z,5.10
2022-10-01T02:06:00.472Z,5.20
2022-10-01T02:07:00.468Z,5.10
2022-10-01T02:08:00.441Z,4.70
2022-10-01T02:09:00.433Z,3.70
2022-10-01T02:10:00.417Z,5.90
2022-10-01T02:11:00.395Z,6.50
2022-10-01T02:12:00.405Z,6.00
2022-10-01T02:13:00.371Z,5.30
2022-10-01T02:14:00.354Z,4.10
2022-10-01T02:15:00.356Z,5.60
2022-10-01T02:16:00.385Z,6.80
2022-10-01T02:17:00.333Z,4.70
2022-10-01T02:18:00.311Z,5.60
2022-10-01T02:19:00.292Z,3.60
2022-10-01T02:20:00.288Z,8.70
2022-10-01T02:21:00.261Z,5.30
2022-10-01T02:22:00.270Z,5.80
2022-10-01T02:23:21.251Z,5.60
2022-10-01T02:24:00.251Z,6.00
2022-10-01T02:25:00.221Z,4.70
2022-10-01T02:26:00.222Z,5.90
2022-10-01T02:27:00.200Z,4.20
2022-10-01T02:28:00.264Z,3.40
2022-10-01T02:29:00.169Z,3.70
2022-10-01T02:30:00.202Z,4.30
2022-10-01T02:31:00.208Z,4.10
2022-10-01T02:32:00.140Z,3.00
2022-10-01T02:33:00.109Z,5.30
2022-10-01T02:34:00.107Z,4.00
2022-10-01T02:35:00.097Z,6.00
2022-10-01T02:36:00.086Z,3.40
2022-10-01T02:37:00.084Z,5.60
2022-10-01T02:38:00.050Z,6.50
2022-10-01T02:39:00.039Z,6.40
2022-10-01T02:40:00.021Z,4.40
2022-10-01T02:41:00.012Z,3.70
2022-10-01T02:42:00.019Z,4.30
2022-10-01T02:42:59.988Z,3.90
2022-10-01T02:43:59.981Z,4.90
2022-10-01T02:44:59.955Z,4.80
2022-10-01T02:46:00.008Z,5.00
2022-10-01T02:46:59.956Z,3.50
2022-10-01T02:47:59.917Z,3.50
2022-10-01T02:48:59.907Z,4.10
2022-10-01T02:49:59.896Z,7.70
2022-10-01T02:50:59.875Z,5.00
2022-10-01T02:51:59.885Z,5.20
2022-10-01T02:52:59.855Z,6.80
2022-10-01T02:53:59.837Z,4.30
2022-10-01T02:54:59.825Z,4.80
2022-10-01T02:55:59.827Z,4.50
2022-10-01T02:56:59.817Z,6.90
2022-10-01T02:57:59.786Z,4.60
2022-10-01T02:58:59.774Z,4.60
2022-10-01T02:59:59.786Z,6.70
2022-10-01T03:00:59.744Z,6.20
2022-10-01T03:01:59.887Z,6.10
2022-10-01T03:02:59.852Z,4.90
2022-10-01T03:03:59.717Z,4.00
2022-10-01T03:04:59.702Z,5.50
2022-10-01T03:05:59.693Z,5.30
2022-10-01T03:06:59.683Z,4.20
2022-10-01T03:07:59.663Z,5.90
2022-10-01T03:08:59.655Z,8.20
2022-10-01T03:09:59.654Z,7.10
2022-10-01T03:10:59.613Z,5.20
2022-10-01T03:11:59.613Z,3.90
2022-10-01T03:12:59.593Z,6.50
2022-10-01T03:13:59.591Z,3.80
2022-10-01T03:14:59.572Z,3.60
2022-10-01T03:15:59.599Z,6.40
2022-10-01T03:16:59.552Z,5.50
2022-10-01T03:17:59.531Z,5.10
2022-10-01T03:18:59.513Z,4.80
2022-10-01T03:19:59.499Z,3.70
2022-10-01T03:20:59.482Z,3.60
2022-10-01T03:21:59.470Z,5.20
2022-10-01T03:22:59.470Z,4.30
2022-10-01T03:23:59.465Z,4.40
2022-10-01T03:24:59.440Z,4.50
2022-10-01T03:25:59.427Z,3.70
2022-10-01T03:26:59.472Z,4.50
2022-10-01T03:27:59.493Z,5.10
2022-10-01T03:28:59.407Z,4.10
2022-10-01T03:29:59.371Z,4.60
2022-10-01T03:30:59.418Z,7.60
2022-10-01T03:31:59.350Z,3.90
2022-10-01T03:32:59.353Z,3.60
2022-10-01T03:33:59.310Z,4.50
2022-10-01T03:34:59.312Z,5.50
2022-10-01T03:35:59.297Z,4.30
2022-10-01T03:36:59.288Z,3.30
2022-10-01T03:37:59.358Z,4.40
2022-10-01T03:38:59.259Z,3.50
2022-10-01T03:39:59.249Z,4.10
2022-10-01T03:40:59.227Z,5.70
2022-10-01T03:41:59.209Z,5.60
2022-10-01T03:42:59.227Z,3.20
2022-10-01T03:44:00.651Z,4.50
2022-10-01T03:44:59.176Z,3.90
2022-10-01T03:45:59.200Z,4.50
2022-10-01T03:46:59.156Z,4.10
2022-10-01T03:47:59.150Z,6.30
2022-10-01T03:48:59.126Z,2.80
2022-10-01T03:49:59.108Z,3.40
2022-10-01T03:50:59.114Z,3.60
2022-10-01T03:51:59.086Z,3.80
2022-10-01T03:52:59.080Z,2.80
2022-10-01T03:53:59.064Z,3.10
2022-10-01T03:54:59.064Z,7.30
2022-10-01T03:55:59.036Z,3.80
2022-10-01T03:56:59.028Z,3.90
2022-10-01T03:57:59.024Z,7.30
2022-10-01T03:58:59.015Z,3.40
2022-10-01T03:59:58.977Z,3.60
2022-10-01T04:00:58.974Z,2.70
2022-10-01T04:01:59.119Z,2.90
2022-10-01T04:02:59.026Z,3.20
2022-10-01T04:03:58.926Z,4.60
2022-10-01T04:04:58.924Z,2.30
2022-10-01T04:05:58.903Z,3.70
2022-10-01T04:06:58.902Z,4.00
2022-10-01T04:07:58.883Z,3.30
2022-10-01T04:08:58.872Z,5.10
2022-10-01T04:09:58.852Z,3.20
2022-10-01T04:10:58.841Z,3.80
2022-10-01T04:11:58.823Z,2.80
2022-10-01T04:12:58.830Z,2.40
2022-10-01T04:13:58.801Z,4.40
2022-10-01T04:14:58.783Z,2.50
2022-10-01T04:15:58.852Z,4.80
2022-10-01T04:16:58.761Z,3.20
2022-10-01T04:17:58.762Z,4.30
2022-10-01T04:18:58.745Z,2.10
2022-10-01T04:19:58.722Z,2.60
2022-10-01T04:20:58.712Z,2.00
2022-10-01T04:21:58.712Z,1.80
2022-10-01T04:22:58.701Z,1.60
2022-10-01T04:23:58.670Z,2.90
2022-10-01T04:24:58.670Z,2.20
2022-10-01T04:25:58.641Z,2.70
2022-10-01T04:26:58.631Z,1.60
2022-10-01T04:27:58.700Z,1.60
2022-10-01T04:28:58.619Z,1.30
2022-10-01T04:29:58.590Z,2.40
2022-10-01T04:30:58.581Z,4.50
2022-10-01T04:31:58.640Z,2.10
2022-10-01T04:32:58.578Z,2.50
2022-10-01T04:33:58.578Z,1.50
2022-10-01T04:34:58.540Z,1.80
2022-10-01T04:35:58.511Z,1.20
2022-10-01T04:36:58.511Z,1.40
2022-10-01T04:37:58.509Z,1.80
2022-10-01T04:39:02.074Z,1.30
2022-10-01T04:39:58.467Z,1.80
2022-10-01T04:40:58.457Z,1.90
2022-10-01T04:41:58.459Z,1.30
2022-10-01T04:42:58.438Z,1.50
2022-10-01T04:43:58.407Z,2.40
2022-10-01T04:44:58.396Z,1.40
2022-10-01T04:45:58.377Z,1.50
2022-10-01T04:46:58.453Z,3.20
2022-10-01T04:47:58.402Z,1.80
2022-10-01T04:48:58.358Z,1.90
2022-10-01T04:49:58.334Z,3.20
2022-10-01T04:50:58.327Z,2.90
2022-10-01T04:51:58.305Z,1.10
2022-10-01T04:52:58.315Z,1.90
2022-10-01T04:53:58.275Z,1.30
2022-10-01T04:54:58.274Z,1.50
2022-10-01T04:55:58.255Z,1.60
2022-10-01T04:56:58.256Z,1.30
2022-10-01T04:57:58.234Z,1.60
2022-10-01T04:58:58.225Z,0.70
2022-10-01T04:59:58.203Z,3.60
2022-10-01T05:01:01.806Z,1.00
2022-10-01T05:01:58.228Z,1.60
2022-10-01T05:02:58.175Z,1.10
2022-10-01T05:03:58.145Z,0.90
2022-10-01T05:04:58.165Z,1.10
2022-10-01T05:05:58.124Z,0.90
2022-10-01T05:06:58.123Z,2.10
2022-10-01T05:07:58.114Z,2.00
2022-10-01T05:08:58.082Z,1.10
2022-10-01T05:09:58.080Z,1.50
2022-10-01T05:10:58.062Z,1.80
2022-10-01T05:11:58.047Z,1.00
2022-10-01T05:12:58.059Z,1.50
2022-10-01T05:13:58.024Z,1.10
2022-10-01T05:14:58.015Z,1.70
2022-10-01T05:15:58.072Z,1.80
2022-10-01T05:16:57.992Z,1.00
2022-10-01T05:17:57.982Z,0.90
2022-10-01T05:18:57.961Z,0.90
2022-10-01T05:19:57.951Z,0.80
2022-10-01T05:20:57.930Z,0.80
2022-10-01T05:21:57.920Z,1.30
2022-10-01T05:22:57.929Z,0.90
2022-10-01T05:23:57.899Z,0.90
2022-10-01T05:24:57.889Z,0.80
2022-10-01T05:25:57.868Z,3.40
2022-10-01T05:26:57.861Z,2.30
2022-10-01T05:27:57.911Z,1.00
2022-10-01T05:28:57.829Z,2.20
2022-10-01T05:29:57.819Z,3.10
2022-10-01T05:30:57.810Z,0.90
2022-10-01T05:31:57.859Z,1.10
2022-10-01T05:32:57.792Z,1.20
2022-10-01T05:33:57.771Z,1.50
2022-10-01T05:34:57.748Z,1.50
2022-10-01T05:35:57.749Z,1.00
2022-10-01T05:36:57.736Z,0.90
2022-10-01T05:37:57.710Z,1.60
2022-10-01T05:38:57.697Z,2.70
2022-10-01T05:39:57.686Z,0.80
2022-10-01T05:40:57.667Z,0.60
2022-10-01T05:41:57.666Z,0.90
2022-10-01T05:42:57.658Z,1.20
2022-10-01T05:43:57.636Z,0.60
2022-10-01T05:44:57.627Z,0.70
2022-10-01T05:45:57.643Z,1.30
2022-10-01T05:46:57.595Z,1.20
2022-10-01T05:47:57.596Z,3.10
2022-10-01T05:48:57.566Z,1.20
2022-10-01T05:49:57.574Z,0.80
2022-10-01T05:50:57.547Z,1.40
2022-10-01T05:51:57.534Z,3.10
2022-10-01T05:52:57.543Z,2.00
2022-10-01T05:53:57.510Z,3.20
2022-10-01T05:54:57.493Z,1.10
2022-10-01T05:55:57.486Z,2.50
2022-10-01T05:56:57.463Z,1.30
2022-10-01T05:57:57.456Z,3.00
2022-10-01T05:58:57.448Z,1.20
2022-10-01T05:59:57.435Z,1.30
2022-10-01T06:00:57.424Z,0.60
2022-10-01T06:01:57.494Z,0.80
2022-10-01T06:02:57.519Z,1.80
2022-10-01T06:03:57.394Z,0.50
2022-10-01T06:04:57.362Z,1.90
2022-10-01T06:05:57.346Z,0.50
2022-10-01T06:06:57.342Z,3.50
2022-10-01T06:07:57.333Z,0.60
2022-10-01T06:08:57.331Z,0.70
2022-10-01T06:09:57.306Z,1.30
2022-10-01T06:10:57.282Z,1.40
2022-10-01T06:11:57.274Z,0.70
2022-10-01T06:12:57.252Z,0.50
2022-10-01T06:13:57.251Z,1.60
2022-10-01T06:14:57.251Z,2.00
2022-10-01T06:15:57.221Z,0.70
2022-10-01T06:16:57.254Z,2.90
2022-10-01T06:17:57.200Z,1.10
2022-10-01T06:18:57.189Z,1.60
2022-10-01T06:19:57.190Z,0.80
2022-10-01T06:20:57.163Z,1.20
2022-10-01T06:21:57.140Z,2.60
2022-10-01T06:22:57.131Z,0.80
2022-10-01T06:23:57.114Z,1.70
2022-10-01T06:24:57.127Z,1.20
2022-10-01T06:25:57.090Z,1.00
2022-10-01T06:26:57.088Z,2.10
2022-10-01T06:27:57.134Z,0.40
2022-10-01T06:28:57.052Z,1.20
2022-10-01T06:29:57.058Z,1.70
2022-10-01T06:30:57.029Z,0.80
2022-10-01T06:31:57.084Z,1.90
2022-10-01T06:32:56.998Z,1.70
2022-10-01T06:33:56.990Z,1.90
2022-10-01T06:34:56.977Z,2.30
2022-10-01T06:35:56.977Z,1.30
2022-10-01T06:36:56.957Z,1.20
2022-10-01T06:37:56.928Z,1.20
2022-10-01T06:38:56.934Z,0.40
2022-10-01T06:39:56.907Z,1.00
2022-10-01T06:40:56.916Z,0.40
2022-10-01T06:41:56.876Z,1.90
2022-10-01T06:42:56.963Z,1.90
2022-10-01T06:43:56.867Z,0.70
2022-10-01T06:44:56.837Z,3.70
2022-10-01T06:45:56.893Z,0.90
2022-10-01T06:46:56.825Z,0.80
2022-10-01T06:47:56.807Z,1.20
2022-10-01T06:48:56.796Z,0.40
2022-10-01T06:49:56.777Z,0.40
2022-10-01T06:50:56.765Z,1.70
2022-10-01T06:51:56.774Z,0.80
2022-10-01T06:52:56.736Z,0.40
2022-10-01T06:53:56.734Z,1.40
2022-10-01T06:54:56.714Z,2.20
2022-10-01T06:55:56.733Z,0.90
2022-10-01T06:56:56.694Z,0.40
2022-10-01T06:57:56.695Z,1.00
2022-10-01T06:58:56.673Z,1.80
2022-10-01T06:59:56.644Z,0.40
2022-10-01T07:00:56.736Z,2.90
2022-10-01T07:01:56.688Z,0.70
2022-10-01T07:02:56.630Z,0.50
2022-10-01T07:03:56.593Z,0.50
2022-10-01T07:04:56.592Z,0.60
2022-10-01T07:05:56.573Z,2.10
2022-10-01T07:06:56.564Z,0.60
2022-10-01T07:07:56.562Z,0.60
2022-10-01T07:08:56.542Z,0.90
2022-10-01T07:09:56.523Z,1.70
2022-10-01T07:10:56.511Z,1.60
2022-10-01T07:11:56.500Z,2.00
2022-10-01T07:12:56.503Z,0.50
2022-10-01T07:13:56.516Z,0.70
2022-10-01T07:14:56.463Z,1.20
2022-10-01T07:15:56.442Z,0.70
2022-10-01T07:16:56.472Z,1.20
2022-10-01T07:17:56.440Z,1.30
2022-10-01T07:18:56.399Z,1.50
2022-10-01T07:19:56.390Z,3.90
2022-10-01T07:20:56.391Z,1.30
2022-10-01T07:21:56.396Z,1.30
2022-10-01T07:22:56.364Z,1.50
2022-10-01T07:23:56.354Z,3.50
2022-10-01T07:24:56.358Z,0.80
2022-10-01T07:25:56.307Z,1.70
2022-10-01T07:26:56.298Z,1.50
2022-10-01T07:27:56.337Z,2.70
2022-10-01T07:28:56.287Z,1.30
2022-10-01T07:29:56.258Z,2.40
2022-10-01T07:30:56.256Z,1.40
2022-10-01T07:31:56.269Z,2.40
2022-10-01T07:32:56.226Z,3.20
2022-10-01T07:33:56.227Z,2.70
2022-10-01T07:34:56.198Z,1.20
2022-10-01T07:35:56.176Z,1.30
2022-10-01T07:36:56.166Z,1.20
2022-10-01T07:37:56.167Z,2.70
2022-10-01T07:38:56.146Z,1.30
2022-10-01T07:39:56.146Z,2.20
2022-10-01T07:40:56.118Z,1.30
2022-10-01T07:41:56.105Z,1.60
2022-10-01T07:42:56.099Z,0.80
2022-10-01T07:43:56.074Z,1.40
2022-10-01T07:44:56.086Z,1.90
2022-10-01T07:45:56.115Z,2.20
2022-10-01T07:46:56.045Z,0.90
2022-10-01T07:47:56.024Z,2.10
2022-10-01T07:48:56.016Z,1.70
2022-10-01T07:49:56.014Z,1.80
2022-10-01T07:50:55.992Z,2.10
2022-10-01T07:51:55.993Z,2.40
2022-10-01T07:52:55.965Z,3.40
2022-10-01T07:53:55.953Z,1.20
2022-10-01T07:54:55.971Z,1.10
2022-10-01T07:55:55.913Z,2.20
2022-10-01T07:56:55.935Z,1.40
2022-10-01T07:57:55.893Z,1.10
2022-10-01T07:58:55.893Z,1.50
2022-10-01T07:59:56.263Z,2.00
2022-10-01T08:00:56.085Z,1.70
2022-10-01T08:01:55.880Z,1.50
2022-10-01T08:02:55.835Z,1.20
2022-10-01T08:03:55.812Z,3.30
2022-10-01T08:04:55.814Z,3.00
2022-10-01T08:05:55.803Z,1.80
2022-10-01T08:06:55.781Z,1.10
2022-10-01T08:07:55.760Z,2.30
2022-10-01T08:08:55.750Z,2.00
2022-10-01T08:09:55.740Z,0.70
2022-10-01T08:10:55.731Z,3.10
2022-10-01T08:11:55.712Z,2.00
2022-10-01T08:12:55.701Z,2.00
2022-10-01T08:13:55.679Z,4.70
2022-10-01T08:14:55.671Z,2.00
2022-10-01T08:15:55.670Z,1.60
2022-10-01T08:16:55.735Z,3.00
2022-10-01T08:17:55.638Z,2.30
2022-10-01T08:18:55.619Z,1.70
2022-10-01T08:19:55.610Z,0.70
2022-10-01T08:20:55.607Z,1.00
2022-10-01T08:21:55.578Z,1.10
2022-10-01T08:22:55.568Z,2.20
2022-10-01T08:23:55.557Z,2.20
2022-10-01T08:24:55.548Z,1.10
2022-10-01T08:25:55.609Z,1.20
2022-10-01T08:26:55.530Z,1.00
2022-10-01T08:27:55.546Z,2.20
2022-10-01T08:28:55.498Z,0.90
2022-10-01T08:29:55.478Z,2.20
2022-10-01T08:30:55.498Z,1.10
2022-10-01T08:31:55.504Z,0.80
2022-10-01T08:32:55.447Z,1.40
2022-10-01T08:33:55.443Z,3.50
2022-10-01T08:34:56.755Z,1.40
2022-10-01T08:35:55.415Z,2.30
2022-10-01T08:36:55.395Z,3.10
2022-10-01T08:37:55.387Z,2.50
2022-10-01T08:38:55.363Z,2.20
2022-10-01T08:39:55.355Z,1.50
2022-10-01T08:40:55.346Z,1.80
2022-10-01T08:41:55.324Z,0.80
2022-10-01T08:42:55.315Z,0.90
2022-10-01T08:43:55.310Z,1.10
2022-10-01T08:44:55.297Z,0.70
2022-10-01T08:45:55.330Z,2.30
2022-10-01T08:46:55.264Z,1.10
2022-10-01T08:47:55.245Z,3.10
2022-10-01T08:48:57.310Z,0.90
2022-10-01T08:49:55.216Z,1.10
2022-10-01T08:50:55.213Z,0.60
2022-10-01T08:51:55.202Z,3.30
2022-10-01T08:52:55.183Z,2.20
2022-10-01T08:53:55.165Z,4.10
2022-10-01T08:54:55.163Z,0.90
2022-10-01T08:55:55.153Z,4.20
2022-10-01T08:56:55.140Z,4.00
2022-10-01T08:57:55.112Z,3.30
2022-10-01T08:58:55.104Z,1.50
2022-10-01T08:59:55.082Z,1.10
2022-10-01T09:00:55.138Z,3.30
2022-10-01T09:01:55.074Z,2.10
2022-10-01T09:02:55.063Z,4.90
2022-10-01T09:03:55.040Z,1.50
2022-10-01T09:04:58.922Z,1.20
2022-10-01T09:05:56.032Z,3.30
2022-10-01T09:06:55.002Z,2.80
2022-10-01T09:07:54.981Z,4.50
2022-10-01T09:08:54.980Z,3.40
2022-10-01T09:09:54.960Z,1.80
2022-10-01T09:10:54.970Z,1.40
2022-10-01T09:11:54.939Z,1.20
2022-10-01T09:12:54.919Z,2.60
2022-10-01T09:13:54.911Z,1.60
2022-10-01T09:14:54.899Z,4.50
2022-10-01T09:15:54.889Z,1.90
2022-10-01T09:16:54.976Z,1.60
2022-10-01T09:17:54.860Z,1.60
2022-10-01T09:18:54.851Z,5.20
2022-10-01T09:19:54.838Z,6.20
2022-10-01T09:20:54.833Z,1.60
2022-10-01T09:21:54.828Z,1.50
2022-10-01T09:22:54.798Z,2.40
2022-10-01T09:23:54.780Z,3.40
2022-10-01T09:24:54.789Z,5.20
2022-10-01T09:25:54.767Z,1.10
2022-10-01T09:26:54.757Z,4.10
2022-10-01T09:27:54.780Z,2.00
2022-10-01T09:28:54.721Z,5.80
2022-10-01T09:29:54.717Z,1.00
2022-10-01T09:30:54.698Z,6.10
2022-10-01T09:31:54.742Z,2.00
2022-10-01T09:32:54.677Z,3.50
2022-10-01T09:33:54.677Z,1.80
2022-10-01T09:34:54.644Z,2.10
2022-10-01T09:35:54.649Z,2.10
2022-10-01T09:36:54.616Z,1.20
2022-10-01T09:37:54.638Z,2.20
2022-10-01T09:38:54.587Z,1.50
2022-10-01T09:39:54.585Z,1.30
2022-10-01T09:40:54.577Z,3.40
2022-10-01T09:41:54.561Z,2.40
2022-10-01T09:42:54.559Z,2.80
2022-10-01T09:43:54.526Z,1.10
2022-10-01T09:44:54.533Z,2.90
2022-10-01T09:45:54.578Z,1.10
2022-10-01T09:46:54.774Z,4.40
2022-10-01T09:47:54.504Z,3.40
2022-10-01T09:48:54.484Z,3.00
2022-10-01T09:49:54.453Z,3.00
2022-10-01T09:50:54.446Z,6.20
2022-10-01T09:51:54.433Z,3.50
2022-10-01T09:52:54.424Z,2.60
2022-10-01T09:53:54.424Z,1.50
2022-10-01T09:54:54.403Z,2.00
2022-10-01T09:55:54.375Z,4.10
2022-10-01T09:56:54.374Z,4.60
2022-10-01T09:57:54.364Z,5.30
2022-10-01T09:58:54.363Z,5.10
2022-10-01T09:59:54.333Z,4.80
2022-10-01T10:00:54.314Z,2.70
2022-10-01T10:01:54.438Z,2.80
2022-10-01T10:02:54.479Z,3.30
2022-10-01T10:03:54.293Z,5.40
2022-10-01T10:04:54.274Z,3.90
2022-10-01T10:05:54.272Z,2.90
2022-10-01T10:06:54.322Z,5.30
2022-10-01T10:07:54.282Z,2.30
2022-10-01T10:08:54.373Z,2.90
2022-10-01T10:09:54.262Z,2.30
2022-10-01T10:10:54.201Z,2.70
2022-10-01T10:11:54.181Z,4.00
2022-10-01T10:12:54.170Z,2.50
2022-10-01T10:13:54.152Z,3.20
2022-10-01T10:14:54.170Z,4.40
2022-10-01T10:15:54.196Z,4.50
2022-10-01T10:16:54.122Z,6.40
2022-10-01T10:17:54.110Z,4.00
2022-10-01T10:18:54.091Z,2.60
2022-10-01T10:19:54.099Z,2.20
2022-10-01T10:20:54.082Z,2.80
2022-10-01T10:21:54.501Z,1.60
2022-10-01T10:22:54.060Z,1.90
2022-10-01T10:23:54.029Z,3.80
2022-10-01T10:24:54.040Z,1.60
2022-10-01T10:25:54.009Z,2.10
2022-10-01T10:26:53.999Z,4.60
2022-10-01T10:27:54.021Z,1.60
2022-10-01T10:28:53.991Z,1.40
2022-10-01T10:29:53.949Z,1.70
2022-10-01T10:30:54.071Z,1.40
2022-10-01T10:31:53.989Z,2.50
2022-10-01T10:32:53.940Z,1.50
2022-10-01T10:33:53.918Z,2.40
2022-10-01T10:34:53.910Z,1.80
2022-10-01T10:35:53.890Z,1.70
2022-10-01T10:36:53.876Z,1.70
2022-10-01T10:37:53.857Z,2.20
2022-10-01T10:38:53.877Z,2.90
2022-10-01T10:39:53.849Z,3.30
2022-10-01T10:40:53.843Z,1.50
2022-10-01T10:41:53.808Z,2.60
2022-10-01T10:42:53.788Z,2.30
2022-10-01T10:43:53.784Z,2.10
2022-10-01T10:44:53.767Z,2.50
2022-10-01T10:45:53.833Z,2.50
2022-10-01T10:46:53.814Z,2.30
2022-10-01T10:47:53.726Z,3.70
2022-10-01T10:48:53.727Z,1.40
2022-10-01T10:49:53.724Z,3.40
2022-10-01T10:50:53.706Z,6.70
2022-10-01T10:51:53.687Z,3.50
2022-10-01T10:52:53.676Z,1.40
2022-10-01T10:53:53.655Z,2.50
2022-10-01T10:54:53.646Z,3.20
2022-10-01T10:55:53.644Z,5.00
2022-10-01T10:56:53.616Z,5.50
2022-10-01T10:57:57.516Z,3.70
2022-10-01T10:58:53.603Z,6.00
2022-10-01T10:59:53.584Z,2.30
2022-10-01T11:00:53.584Z,4.60
2022-10-01T11:01:53.627Z,3.70
2022-10-01T11:02:53.542Z,4.40
2022-10-01T11:03:53.537Z,3.60
2022-10-01T11:04:53.512Z,2.80
2022-10-01T11:05:53.516Z,2.60
2022-10-01T11:06:53.494Z,2.40
2022-10-01T11:07:53.478Z,3.50
2022-10-01T11:08:53.465Z,4.50
2022-10-01T11:09:53.445Z,3.20
2022-10-01T11:10:53.454Z,3.30
2022-10-01T11:11:53.428Z,3.20
2022-10-01T11:12:53.422Z,4.60
2022-10-01T11:13:53.392Z,2.70
2022-10-01T11:14:53.387Z,2.90
2022-10-01T11:15:53.435Z,2.90
2022-10-01T11:16:53.363Z,2.30
2022-10-01T11:17:53.342Z,6.70
2022-10-01T11:18:53.333Z,4.20
2022-10-01T11:19:53.322Z,3.20
2022-10-01T11:20:53.312Z,2.00
2022-10-01T11:21:53.354Z,2.40
2022-10-01T11:22:53.274Z,1.80
2022-10-01T11:23:53.264Z,4.90
2022-10-01T11:24:53.251Z,4.10
2022-10-01T11:25:53.236Z,2.90
2022-10-01T11:26:53.597Z,2.60
2022-10-01T11:27:53.233Z,3.70
2022-10-01T11:28:53.201Z,4.90
2022-10-01T11:29:53.674Z,5.30
2022-10-01T11:30:53.172Z,4.30
2022-10-01T11:31:53.172Z,5.00
2022-10-01T11:32:53.150Z,7.90
2022-10-01T11:33:53.120Z,3.30
2022-10-01T11:34:53.112Z,4.10
2022-10-01T11:35:53.107Z,4.10
2022-10-01T11:36:55.503Z,8.80
2022-10-01T11:37:53.082Z,4.70
2022-10-01T11:38:53.063Z,5.70
2022-10-01T11:39:53.041Z,7.50
2022-10-01T11:40:53.049Z,7.70
2022-10-01T11:41:53.021Z,5.00
2022-10-01T11:42:53.027Z,3.00
2022-10-01T11:43:52.989Z,4.80
2022-10-01T11:44:56.263Z,6.50
2022-10-01T11:45:53.970Z,8.80
2022-10-01T11:46:52.988Z,6.20
2022-10-01T11:47:52.978Z,3.50
2022-10-01T11:48:52.930Z,4.80
2022-10-01T11:49:52.909Z,4.40
2022-10-01T11:50:52.901Z,5.90
2022-10-01T11:51:52.887Z,2.30
2022-10-01T11:52:52.883Z,7.20
2022-10-01T11:53:52.871Z,8.00
2022-10-01T11:54:56.047Z,6.30
2022-10-01T11:55:52.839Z,5.50
2022-10-01T11:56:52.837Z,7.10
2022-10-01T11:57:52.819Z,3.90
2022-10-01T11:58:52.862Z,6.10
2022-10-01T11:59:52.787Z,11.20
2022-10-01T12:00:52.770Z,2.60
2022-10-01T12:01:52.820Z,4.30
2022-10-01T12:02:52.750Z,5.40
2022-10-01T12:03:52.749Z,7.70
2022-10-01T12:04:52.747Z,6.60
2022-10-01T12:05:52.750Z,4.50
2022-10-01T12:06:52.711Z,4.30
2022-10-01T12:07:52.685Z,5.70
2022-10-01T12:08:52.692Z,3.80
2022-10-01T12:09:52.658Z,5.00
2022-10-01T12:10:52.648Z,6.40
2022-10-01T12:11:52.630Z,7.30
2022-10-01T12:12:52.620Z,6.20
2022-10-01T12:13:52.599Z,3.20
2022-10-01T12:14:52.609Z,4.90
2022-10-01T12:15:52.662Z,7.20
2022-10-01T12:16:52.576Z,3.20
2022-10-01T12:17:52.557Z,5.40
2022-10-01T12:18:52.538Z,3.40
2022-10-01T12:19:52.546Z,3.90
2022-10-01T12:20:52.511Z,1.80
2022-10-01T12:21:52.499Z,3.90
2022-10-01T12:22:52.490Z,4.00
2022-10-01T12:23:52.478Z,7.30
2022-10-01T12:24:52.475Z,4.60
2022-10-01T12:25:52.456Z,9.30
2022-10-01T12:26:52.435Z,2.60
2022-10-01T12:27:52.496Z,3.50
2022-10-01T12:28:56.703Z,8.60
2022-10-01T12:29:53.428Z,6.40
2022-10-01T12:30:52.391Z,7.30
2022-10-01T12:31:52.376Z,5.30
2022-10-01T12:32:52.369Z,5.00
2022-10-01T12:33:52.352Z,5.90
2022-10-01T12:34:54.421Z,3.80
2022-10-01T12:35:52.336Z,4.90
2022-10-01T12:36:52.307Z,8.10
2022-10-01T12:37:52.314Z,5.90
2022-10-01T12:38:52.283Z,5.50
2022-10-01T12:39:52.284Z,6.10
2022-10-01T12:40:52.264Z,4.10
2022-10-01T12:41:52.244Z,7.70
2022-10-01T12:42:52.242Z,5.50
2022-10-01T12:43:52.232Z,6.40
2022-10-01T12:44:52.205Z,5.50
2022-10-01T12:45:52.254Z,4.40
2022-10-01T12:46:52.175Z,11.10
2022-10-01T12:47:52.175Z,8.30
2022-10-01T12:48:52.154Z,5.00
2022-10-01T12:49:52.150Z,3.30
2022-10-01T12:50:52.152Z,3.10
2022-10-01T12:51:52.123Z,5.80
2022-10-01T12:52:52.104Z,5.80
2022-10-01T12:53:52.098Z,7.00
2022-10-01T12:54:52.075Z,4.90
2022-10-01T12:55:52.065Z,5.80
2022-10-01T12:56:52.062Z,8.80
2022-10-01T12:57:52.036Z,6.00
2022-10-01T12:58:52.034Z,4.70
2022-10-01T12:59:52.015Z,5.70
2022-10-01T13:00:52.045Z,4.10
2022-10-01T13:01:52.054Z,5.30
2022-10-01T13:02:51.976Z,5.10
2022-10-01T13:03:51.972Z,5.20
2022-10-01T13:04:51.943Z,5.80
2022-10-01T13:05:51.936Z,6.10
2022-10-01T13:06:51.940Z,5.20
2022-10-01T13:07:51.912Z,6.30
2022-10-01T13:08:51.895Z,6.00
2022-10-01T13:09:51.892Z,6.40
2022-10-01T13:10:51.871Z,4.30
2022-10-01T13:11:52.020Z,6.40
2022-10-01T13:12:51.856Z,5.80
2022-10-01T13:13:51.833Z,4.20
2022-10-01T13:14:51.819Z,7.50
2022-10-01T13:15:51.841Z,5.40
2022-10-01T13:16:51.794Z,9.00
2022-10-01T13:17:51.790Z,4.60